createdAt,value
2023-05-12T00:04:01.386Z,4.20
2023-05-12T00:09:03.418Z,4.28
2023-05-12T00:14:05.088Z,4.55
2023-05-12T00:19:06.961Z,3.80
2023-05-12T00:24:08.895Z,5.18
2023-05-12T00:29:10.629Z,4.10
2023-05-12T00:34:12.298Z,5.20
2023-05-12T00:39:13.986Z,5.07
2023-05-12T00:44:15.632Z,4.78
2023-05-12T00:49:17.295Z,4.70
2023-05-12T00:54:19.145Z,4.97
2023-05-12T00:59:20.866Z,5.57
2023-05-12T01:04:22.710Z,5.75
2023-05-12T01:09:25.520Z,6.25
2023-05-12T01:14:27.165Z,5.57
2023-05-12T01:19:41.365Z,5.85
2023-05-12T01:24:52.579Z,5.90
2023-05-12T01:29:57.805Z,6.40
2023-05-12T01:35:00.248Z,7.40
2023-05-12T01:40:04.581Z,8.32
2023-05-12T01:45:07.686Z,7.85
2023-05-12T01:50:10.082Z,8.02
2023-05-12T01:55:12.589Z,7.43
2023-05-12T02:00:21.783Z,6.80
2023-05-12T02:05:26.304Z,6.40
2023-05-12T02:10:28.840Z,7.05
2023-05-12T02:15:30.552Z,6.07
2023-05-12T02:20:32.583Z,7.35
2023-05-12T02:25:34.335Z,8.00
2023-05-12T02:30:35.919Z,9.00
2023-05-12T02:35:38.283Z,9.95
2023-05-12T02:40:40.323Z,8.65
2023-05-12T02:45:44.947Z,9.32
2023-05-12T02:50:46.653Z,9.88
2023-05-12T02:55:48.735Z,9.27
2023-05-12T03:00:59.750Z,8.23
2023-05-12T03:06:09.706Z,8.10
2023-05-12T03:11:11.563Z,7.93
2023-05-12T03:16:13.794Z,7.50
2023-05-12T03:21:15.472Z,7.20
2023-05-12T03:26:17.189Z,7.55
2023-05-12T03:31:18.833Z,7.07
2023-05-12T03:36:21.506Z,7.05
2023-05-12T03:41:23.690Z,6.60
2023-05-12T03:46:25.696Z,7.45
2023-05-12T03:51:31.176Z,7.43
2023-05-12T03:56:33.004Z,7.43
2023-05-12T04:01:35.699Z,8.10
2023-05-12T04:06:37.409Z,7.47
2023-05-12T04:11:39.139Z,7.30
2023-05-12T04:16:40.890Z,7.72
2023-05-12T04:21:42.842Z,6.93
2023-05-12T04:26:44.543Z,6.95
2023-05-12T04:31:46.903Z,6.50
2023-05-12T04:36:49.380Z,6.85
2023-05-12T04:41:51.214Z,6.47
2023-05-12T04:46:56.324Z,6.45
2023-05-12T04:51:58.445Z,6.32
2023-05-12T04:57:00.411Z,6.30
2023-05-12T05:02:02.520Z,7.18
2023-05-12T05:07:04.585Z,5.95
2023-05-12T05:12:07.707Z,5.88
2023-05-12T05:17:11.320Z,5.10
2023-05-12T05:22:13.823Z,5.43
2023-05-12T05:27:15.532Z,5.78
2023-05-12T05:32:17.372Z,5.07
2023-05-12T05:37:19.842Z,5.03
2023-05-12T05:42:21.511Z,4.85
2023-05-12T05:47:24.025Z,4.78
2023-05-12T05:52:26.073Z,4.20
2023-05-12T05:57:28.301Z,4.57
2023-05-12T06:02:33.408Z,5.10
2023-05-12T06:07:35.585Z,4.82
2023-05-12T06:12:40.861Z,4.70
2023-05-12T06:17:42.622Z,4.72
2023-05-12T06:22:44.431Z,4.63
2023-05-12T06:27:46.293Z,4.63
2023-05-12T06:32:50.731Z,5.28
2023-05-12T06:37:53.253Z,4.47
2023-05-12T06:42:54.909Z,4.22
2023-05-12T06:47:57.789Z,4.07
2023-05-12T06:53:03.704Z,4.30
2023-05-12T06:58:05.459Z,3.70
2023-05-12T07:03:10.140Z,3.83
2023-05-12T07:08:12.328Z,4.22
2023-05-12T07:13:14.626Z,4.05
2023-05-12T07:18:16.788Z,4.07
2023-05-12T07:23:18.518Z,3.88
2023-05-12T07:28:20.137Z,3.92
2023-05-12T07:33:21.800Z,3.53
2023-05-12T07:38:24.240Z,4.18
2023-05-12T07:43:26.108Z,4.03
2023-05-12T07:48:28.058Z,4.28
2023-05-12T07:53:29.679Z,3.92
2023-05-12T07:58:31.558Z,3.97
2023-05-12T08:03:34.988Z,4.32
2023-05-12T08:08:37.025Z,4.50
2023-05-12T08:13:39.067Z,3.70
2023-05-12T08:18:41.040Z,4.60
2023-05-12T08:23:42.797Z,4.20
2023-05-12T08:28:44.535Z,4.13
2023-05-12T08:33:51.756Z,3.70
2023-05-12T08:38:59.525Z,3.88
2023-05-12T08:44:01.442Z,3.38
2023-05-12T08:49:04.585Z,4.00
2023-05-12T08:54:08.953Z,3.92
2023-05-12T08:59:11.118Z,3.75
2023-05-12T09:04:15.386Z,3.05
2023-05-12T09:09:18.744Z,4.30
2023-05-12T09:14:25.914Z,4.43
2023-05-12T09:19:28.159Z,4.10
2023-05-12T09:24:40.077Z,3.85
2023-05-12T09:29:59.390Z,4.15
2023-05-12T09:35:12.670Z,4.85
2023-05-12T09:40:15.963Z,4.65
2023-05-12T09:45:17.679Z,4.97
2023-05-12T09:50:19.417Z,4.25
2023-05-12T09:55:22.689Z,4.88
2023-05-12T10:00:37.009Z,4.32
2023-05-12T10:05:50.243Z,3.35
2023-05-12T10:10:53.840Z,2.97
2023-05-12T10:15:59.198Z,3.95
2023-05-12T10:21:01.794Z,3.17
2023-05-12T10:26:04.227Z,2.90
2023-05-12T10:31:07.654Z,2.92
2023-05-12T10:36:19.663Z,3.38
2023-05-12T10:41:31.950Z,3.05
2023-05-12T10:46:33.756Z,3.45
2023-05-12T10:51:59.577Z,3.50
2023-05-12T10:57:02.724Z,4.10
2023-05-12T11:02:07.871Z,3.72
2023-05-12T11:07:12.091Z,3.60
2023-05-12T11:12:14.731Z,3.00
2023-05-12T11:17:16.382Z,4.10
2023-05-12T11:22:21.464Z,3.20
2023-05-12T11:27:23.899Z,3.50
2023-05-12T11:32:26.737Z,3.42
2023-05-12T11:37:28.577Z,3.10
2023-05-12T11:42:30.534Z,3.60
2023-05-12T11:47:32.237Z,3.33
2023-05-12T11:52:34.069Z,3.30
2023-05-12T11:57:39.593Z,3.58
2023-05-12T12:02:43.476Z,3.60
2023-05-12T12:07:45.352Z,3.83
2023-05-12T12:12:47.176Z,3.67
2023-05-12T12:17:49.155Z,3.30
2023-05-12T12:22:52.208Z,3.35
2023-05-12T12:27:53.864Z,3.85
2023-05-12T12:32:55.673Z,3.67
2023-05-12T12:37:57.272Z,3.40
2023-05-12T12:42:58.865Z,3.17
2023-05-12T12:48:00.568Z,3.25
2023-05-12T12:53:02.421Z,3.63
2023-05-12T12:58:04.052Z,3.17
2023-05-12T13:03:07.877Z,3.17
2023-05-12T13:08:09.505Z,2.92
2023-05-12T13:13:13.954Z,3.20
2023-05-12T13:18:15.572Z,3.53
2023-05-12T13:23:17.170Z,3.05
2023-05-12T13:28:19.344Z,3.60
2023-05-12T13:33:21.745Z,3.60
2023-05-12T13:38:23.375Z,3.72
2023-05-12T13:43:25.071Z,3.55
2023-05-12T13:48:26.694Z,3.80
2023-05-12T13:53:28.430Z,3.63
2023-05-12T13:58:30.032Z,3.22
2023-05-12T14:03:31.663Z,3.90
2023-05-12T14:08:33.395Z,3.78
2023-05-12T14:13:35.198Z,3.30
2023-05-12T14:18:37.525Z,3.70
2023-05-12T14:23:39.249Z,3.78
2023-05-12T14:28:40.985Z,3.97
2023-05-12T14:33:42.721Z,3.45
2023-05-12T14:38:44.325Z,3.63
2023-05-12T14:43:45.963Z,3.78
2023-05-12T14:48:48.816Z,3.30
2023-05-12T14:53:50.943Z,3.67
2023-05-12T14:58:52.525Z,3.90
2023-05-12T15:03:54.441Z,6.75
2023-05-12T15:08:56.015Z,4.45
2023-05-12T15:13:57.780Z,8.95
2023-05-12T15:18:59.425Z,5.05
2023-05-12T15:24:01.122Z,5.95
2023-05-12T15:29:02.764Z,5.43
2023-05-12T15:34:04.492Z,4.53
2023-05-12T15:39:06.079Z,3.97
2023-05-12T15:44:07.683Z,3.88
2023-05-12T15:49:10.054Z,3.80
2023-05-12T15:54:12.526Z,3.47
2023-05-12T15:59:14.219Z,3.60
2023-05-12T16:04:15.907Z,4.22
2023-05-12T16:09:17.517Z,3.80
2023-05-12T16:14:19.235Z,4.53
2023-05-12T16:19:20.813Z,4.75
2023-05-12T16:24:22.582Z,3.97
2023-05-12T16:29:24.710Z,4.22
2023-05-12T16:34:26.385Z,4.05
2023-05-12T16:39:27.963Z,5.65
2023-05-12T16:44:29.586Z,3.67
2023-05-12T16:49:31.205Z,3.63
2023-05-12T16:54:32.935Z,3.40
2023-05-12T16:59:34.561Z,4.30
2023-05-12T17:04:36.466Z,4.57
2023-05-12T17:09:38.122Z,4.60
2023-05-12T17:14:39.971Z,4.90
2023-05-12T17:19:42.089Z,5.28
2023-05-12T17:24:44.473Z,5.30
2023-05-12T17:29:46.079Z,7.05
2023-05-12T17:34:50.513Z,9.30
2023-05-12T17:39:52.622Z,7.43
2023-05-12T17:44:54.235Z,7.30
2023-05-12T17:49:56.614Z,7.30
2023-05-12T17:54:58.625Z,8.05
2023-05-12T18:00:04.551Z,7.35
2023-05-12T18:05:15.754Z,7.63
2023-05-12T18:10:17.417Z,7.60
2023-05-12T18:15:20.153Z,6.43
2023-05-12T18:20:22.081Z,6.38
2023-05-12T18:25:23.893Z,5.72
2023-05-12T18:30:25.936Z,6.70
2023-05-12T18:35:27.836Z,5.93
2023-05-12T18:40:29.501Z,6.78
2023-05-12T18:45:31.089Z,6.35
2023-05-12T18:50:32.694Z,5.55
2023-05-12T18:55:34.471Z,5.45
2023-05-12T19:00:36.139Z,5.80
2023-05-12T19:05:38.886Z,9.15
2023-05-12T19:10:40.724Z,19.80
2023-05-12T19:15:42.719Z,8.95
2023-05-12T19:20:44.433Z,6.22
2023-05-12T19:25:46.545Z,6.65
2023-05-12T19:30:48.615Z,6.32
2023-05-12T19:35:50.879Z,6.93
2023-05-12T19:40:52.846Z,5.72
2023-05-12T19:45:55.158Z,5.85
2023-05-12T19:50:57.062Z,5.97
2023-05-12T19:55:58.849Z,7.20
2023-05-12T20:01:00.785Z,5.97
2023-05-12T20:06:02.516Z,7.55
2023-05-12T20:11:04.119Z,8.80
2023-05-12T20:16:06.268Z,9.38
2023-05-12T20:21:08.026Z,9.50
2023-05-12T20:26:10.044Z,9.05
2023-05-12T20:31:11.992Z,9.55
2023-05-12T20:36:13.784Z,9.80
2023-05-12T20:41:15.841Z,15.80
2023-05-12T20:46:17.596Z,9.30
2023-05-12T20:51:19.418Z,8.77
2023-05-12T20:56:23.936Z,8.95
2023-05-12T21:01:26.307Z,9.23
2023-05-12T21:06:28.168Z,10.15
2023-05-12T21:11:29.759Z,7.57
2023-05-12T21:16:35.092Z,7.82
2023-05-12T21:21:41.326Z,6.05
2023-05-12T21:26:43.242Z,7.00
2023-05-12T21:31:48.481Z,6.72
2023-05-12T21:36:50.539Z,7.07
2023-05-12T21:41:52.504Z,6.97
2023-05-12T21:46:54.614Z,6.43
2023-05-12T21:51:56.975Z,6.65
2023-05-12T21:57:01.381Z,6.57
2023-05-12T22:02:04.872Z,7.78
2023-05-12T22:07:08.096Z,8.20
2023-05-12T22:12:13.643Z,6.88
2023-05-12T22:17:15.434Z,6.55
2023-05-12T22:22:17.204Z,6.47
2023-05-12T22:27:22.292Z,6.07
2023-05-12T22:32:26.602Z,5.82
2023-05-12T22:37:28.988Z,7.30
2023-05-12T22:42:30.707Z,6.85
2023-05-12T22:47:32.762Z,6.15
2023-05-12T22:52:34.813Z,6.35
2023-05-12T22:57:38.644Z,6.30
2023-05-12T23:02:40.586Z,7.50
2023-05-12T23:07:42.364Z,7.10
2023-05-12T23:12:44.862Z,7.28
2023-05-12T23:17:47.202Z,8.40
2023-05-12T23:22:49.430Z,7.68
2023-05-12T23:27:51.223Z,7.78
2023-05-12T23:32:53.291Z,8.70
2023-05-12T23:37:55.900Z,8.60
2023-05-12T23:43:00.179Z,7.53
2023-05-12T23:48:02.099Z,9.18
2023-05-12T23:53:04.065Z,8.20
2023-05-12T23:58:07.071Z,8.27
